http://www.ohio.gov http://www.dot.state.oh.us
W W W . B U C K E Y E T R A F F I C . O R G

1-SR49 @ SR249 (200000) Status Air Temp Sfc Temp Sub Temp Dew Temp Wind Precip Traffic Updated
Sensor [A]: Atmospheric - 71.2 - - 68.4 2.5 / SW - - 8/30/2015 9:41:56 AM
Sensor [0]: SR49 NB Lane Dry - 78.8 - - - - 0 / 9.9 8/30/2015 9:41:56 AM
2-SR-309 @ SR-235 (200001) Status Air Temp Sfc Temp Sub Temp Dew Temp Wind Precip Traffic Updated
Sensor [A]: Atmospheric - 70.0 - - 65.3 3.1 / N - - 8/30/2015 9:41:14 AM
Sensor [0]: SR309 EB Dry - 78.8 84.2 - - - - 8/30/2015 9:41:14 AM
Sensor [1]: SR235 SB Dry - 78.8 - - - - - 8/30/2015 9:41:14 AM
3-US24 @ Indiana Line (200002) Status Air Temp Sfc Temp Sub Temp Dew Temp Wind Precip Traffic Updated
Sensor [A]: Atmospheric - 73.2 - - 69.4 6.2 / W - - 8/30/2015 9:41:59 AM
Sensor [0]: EB Driving Dry - 77.0 75.2 - - - 0 / 9.9 8/30/2015 9:41:59 AM
Sensor [1]: WB Driving Dry - 78.8 - - - - 0 / 9.9 8/30/2015 9:41:59 AM
4-US224 @ SR190 (200003) Status Air Temp Sfc Temp Sub Temp Dew Temp Wind Precip Traffic Updated
Sensor [A]: Atmospheric - 73.4 - - 71.6 8.1 / W - - 8/30/2015 9:37:35 AM
Sensor [0]: Eastbound Driving Lane Dry - 89.6 - - - - 1 / 65.2 8/30/2015 9:37:35 AM
5- US30 @ SR49 North (200004) Status Air Temp Sfc Temp Sub Temp Dew Temp Wind Precip Traffic Updated
Sensor [A]: Atmospheric - 73.6 - - 70.9 5.6 / S - - 8/30/2015 9:42:33 AM
Sensor [0]: US30 Westbound Driving Dry - 80.6 - - - - 0 / 9.9 8/30/2015 9:42:33 AM
Sensor [1]: US30 Eastbound Driving Dry - 78.8 - - - - 0 / 9.9 8/30/2015 9:42:33 AM
6-US 30/23 @ E. Wyandot Ave. (MM 16.3) (200005) Status Air Temp Sfc Temp Sub Temp Dew Temp Wind Precip Traffic Updated
Sensor [A]: Atmospheric - 70.5 - - 66.7 5.6 / SE - - 8/30/2015 9:42:34 AM
7-US30 Bypass @ SR4 (200006) Status Air Temp Sfc Temp Sub Temp Dew Temp Wind Precip Traffic Updated
Sensor [A]: Atmospheric - 69.8 - - 67.3 3.7 / S - - 8/30/2015 9:39:09 AM
Sensor [0]: US30 East Bound Driving Lane Dry - 76.6 - - - - 20 / 60.9 8/30/2015 9:39:09 AM
Sensor [1]: US30 West Bound Driving Lane Dry - 76.3 - - - - 80 / 158.4 8/30/2015 9:39:09 AM
8-Huron County Garage (200007) Status Air Temp Sfc Temp Sub Temp Dew Temp Wind Precip Traffic Updated
Sensor [A]: Atmospheric - 68.9 - - 69.3 - - - 8/30/2015 9:40:27 AM
Sensor [0]: US250 NB Lane Dry - 73.4 - - - - 0 / 9.9 8/30/2015 9:40:27 AM
Sensor [1]: US250 SB Lane Dry - 73.4 - - - - 0 / 9.9 8/30/2015 9:40:27 AM
9-I77 MM 109 @ Belden Village (200008) Status Air Temp Sfc Temp Sub Temp Dew Temp Wind Precip Traffic Updated
Sensor [A]: Atmospheric - 66.7 - - 64.4 2.5 / W - - 8/30/2015 9:42:10 AM
Sensor [0]: Ramp Bridge over I-77 Dry - 71.6 71.6 - - - 1 / 9.9 8/30/2015 9:42:10 AM
Sensor [1]: Bridgedeck over I-77 Dry - 73.4 - - - - 0 / 9.9 8/30/2015 9:42:10 AM
10-SR5@SR45 (200009) Status Air Temp Sfc Temp Sub Temp Dew Temp Wind Precip Traffic Updated
Sensor [A]: Atmospheric - 69.3 - - 65.7 3.7 / SE - - 8/30/2015 9:40:28 AM
Sensor [0]: EB Driving Dry - 77.9 77.9 - - - - 8/30/2015 9:40:28 AM
Sensor [1]: SR5 EB Passing Dry - 77.0 - - - - - 8/30/2015 9:40:28 AM
Sensor [2]: SR5 WB Passing Bridgedeck Dry - 78.8 - - - - - 8/30/2015 9:40:28 AM
Sensor [3]: SR5 EB passing Bridgedeck Dry - 75.2 - - - - - 8/30/2015 9:40:28 AM
11-SR36@SR206 (200010) Status Air Temp Sfc Temp Sub Temp Dew Temp Wind Precip Traffic Updated
Sensor [A]: Atmospheric - 67.6 - - 68.0 - - - 8/30/2015 9:41:17 AM
Sensor [0]: US36 EB Dry - 75.2 - - - - - 8/30/2015 9:41:17 AM
Sensor [1]: US36 WB Dry - 73.4 - - - - - 8/30/2015 9:41:17 AM
12- US 33 @ MM 11.5 (200011) Status Air Temp Sfc Temp Sub Temp Dew Temp Wind Precip Traffic Updated
Sensor [A]: Atmospheric - 73.8 - - 69.4 3.7 / S - - 8/30/2015 9:41:51 AM
Sensor [0]: US33 EB Driving Dry - 81.7 79.7 - - - - 8/30/2015 9:41:51 AM
Sensor [1]: US33 WB Driving Lane Bridgedeck Dry - 79.7 - - - - - 8/30/2015 9:41:51 AM
13-Knox County Garage (200012) Status Air Temp Sfc Temp Sub Temp Dew Temp Wind Precip Traffic Updated
Sensor [A]: Atmospheric - 67.6 - - 65.8 0.6 / E - - 8/30/2015 9:42:11 AM
Sensor [0]: SR-3 NB Driving Dry - 71.6 78.8 - - - 0 / 9.9 8/30/2015 9:42:11 AM
14-SR 13 @ TR 37 Sheridan Rd (MM 32.6) (200013) Status Air Temp Sfc Temp Sub Temp Dew Temp Wind Precip Traffic Updated
Sensor [A]: Atmospheric - 73.6 - - 66.0 - - - 8/30/2015 9:42:14 AM
Sensor [0]: SR13 Eastbound Dry - 82.4 - - - - - 8/30/2015 9:42:14 AM
Sensor [1]: SR13 Westbound Dry - 82.4 - - - - - 8/30/2015 9:42:14 AM
15-US35 @ SR62 (200014) Status Air Temp Sfc Temp Sub Temp Dew Temp Wind Precip Traffic Updated
Sensor [A]: Atmospheric - 73.4 - - - 8.7 / SW - - 8/30/2015 9:42:44 AM
Sensor [0]: US35 EB Driving Dry - 84.2 82.4 - - - - 8/30/2015 9:42:44 AM
Sensor [2]: SR62 NB Bridgedeck Dry - 86.9 - - - - - 8/30/2015 9:42:44 AM
Sensor [3]: SR62 NB Bridgedeck Dry - 82.4 - - - - - 8/30/2015 9:42:44 AM
Sensor [4]: US35 EB Driving Dry - 80.6 - - - - - 8/30/2015 9:42:44 AM
16-SR-752 @ 1.3 Pickaway County (200015) Status Air Temp Sfc Temp Sub Temp Dew Temp Wind Precip Traffic Updated
Sensor [A]: Atmospheric - 73.0 - - 68.9 5.6 / S - - 8/30/2015 9:40:48 AM
17-US23 @ E. Fairground Road Overpass (200016) Status Air Temp Sfc Temp Sub Temp Dew Temp Wind Precip Traffic Updated
Sensor [A]: Atmospheric - 70.0 - - 66.4 4.3 / SW - - 8/30/2015 9:39:40 AM
Sensor [0]: US23 NorthBound Passing Approach No Report - - - - - - - 8/30/2015 9:39:40 AM
Sensor [1]: US23 SouthBound Passing Bridgedeck No Report - - - - - - 34 / 57.2 8/30/2015 9:39:40 AM
18-US33 @ SR739 (200017) Status Air Temp Sfc Temp Sub Temp Dew Temp Wind Precip Traffic Updated
Sensor [A]: Atmospheric - 68.5 - - 76.3 3.7 / W Rain / 0.0 - 8/30/2015 9:40:43 AM
Sensor [0]: US33 WB Driving Dry - 73.4 77.0 - - - - 8/30/2015 9:40:43 AM
Sensor [1]: SR739 NB Bridgedeck Dry - 73.4 - - - - - 8/30/2015 9:40:43 AM
Sensor [2]: US33 EB Driving Shade Dry - 71.6 - - - - - 8/30/2015 9:40:43 AM
19-US 68 near Clark Co. Line (MM 0.7) (200018) Status Air Temp Sfc Temp Sub Temp Dew Temp Wind Precip Traffic Updated
Sensor [A]: Atmospheric - 70.0 - - 69.3 5.0 / SW - - 8/30/2015 9:44:32 AM
Sensor [0]: US68 SB Driving Lane Dry - 74.1 70.9 - - - - 8/30/2015 9:44:32 AM
Sensor [1]: US68 NB Driving Lane Dry - 75.4 - - - - - 8/30/2015 9:44:32 AM
Sensor [2]: US68 NB Driving Lane Bridgedeck Dry - 74.3 - - - - - 8/30/2015 9:44:32 AM
20-SR 502 @ CR 30 Palestine-Union City Rd (MM 3.3) (200019) Status Air Temp Sfc Temp Sub Temp Dew Temp Wind Precip Traffic Updated
Sensor [A]: Atmospheric - 70.5 - - 77.2 2.5 / NE - - 8/30/2015 9:42:29 AM
Sensor [0]: SR502 EB Lane Dry - 78.8 82.4 - - - 0 / 9.9 8/30/2015 9:42:29 AM
21-US33 @ SR540 (200020) Status Air Temp Sfc Temp Sub Temp Dew Temp Wind Precip Traffic Updated
Sensor [A]: Atmospheric - 68.9 - - 62.4 3.1 / S - - 8/30/2015 8:47:24 AM
Sensor [0]: US-33 East Bound Driving Lane Dry - 77.0 78.8 - - - 3 / 55.9 8/30/2015 8:47:24 AM
Sensor [1]: US-33 West Bound Passing Lane Dry - 75.2 - - - - 0 / 52.2 8/30/2015 8:47:24 AM
22-SR 29 @ Hickory Branch Creek (MM 1.6) (200021) Status Air Temp Sfc Temp Sub Temp Dew Temp Wind Precip Traffic Updated
Sensor [A]: Atmospheric - 74.8 - - 70.3 5.6 / SW - - 8/30/2015 9:40:00 AM
Sensor [0]: SR29 EB Lane Dry - 82.6 78.6 - - - 0 / 5.0 8/30/2015 9:40:00 AM
Sensor [1]: SR 29 WB Lane Dry - 82.6 - - - - 1 / 5.0 8/30/2015 9:40:00 AM
23-SR41 @ SR136 Adams County (200022) Status Air Temp Sfc Temp Sub Temp Dew Temp Wind Precip Traffic Updated
Sensor [A]: Atmospheric - 71.6 - - 67.3 4.3 / SW - - 8/30/2015 9:43:01 AM
Sensor [0]: SR136 NB Lane Dry - 76.1 80.6 - - - - 8/30/2015 9:43:01 AM
Sensor [1]: SR136 SB Lane Dry - 77.9 - - - - - 8/30/2015 9:43:01 AM
24-US68@SR125 (200023) Status Air Temp Sfc Temp Sub Temp Dew Temp Wind Precip Traffic Updated
Sensor [A]: Atmospheric - 75.2 - - 69.3 1.2 / N - - 8/30/2015 9:40:36 AM
Sensor [0]: NB US68 Dry - 91.4 - - - - - 8/30/2015 9:40:36 AM
Sensor [1]: SB US68 Dry - 86.0 - - - - - 8/30/2015 9:40:36 AM
25-SR73 South of TR 409 (MM 4.2) (200024) Status Air Temp Sfc Temp Sub Temp Dew Temp Wind Precip Traffic Updated
Sensor [A]: Atmospheric - 72.3 - - 71.8 5.0 / W - - 8/30/2015 9:42:39 AM
26-SR 32 @ TR 255 Rice Road (MM 14.6) (200025) Status Air Temp Sfc Temp Sub Temp Dew Temp Wind Precip Traffic Updated
Sensor [A]: Atmospheric - 72.5 - - 70.5 0.6 / SE - - 8/30/2015 9:42:41 AM
Sensor [0]: US 35 WB Driving Lane Dry - 86.0 73.4 - - - 17 / 55.3 8/30/2015 9:42:41 AM
Sensor [1]: US 35 EB Driving Lane Dry - 86.9 - - - - 16 / 59.0 8/30/2015 9:42:41 AM
Sensor [2]: SR32 Eastbound Driving Lane Bridgedeck Dry - 90.5 - - - - 15 / 55.3 8/30/2015 9:42:41 AM
Sensor [3]: SR32 Westbound Passing Lane Approach Dry - 86.0 - - - - 0 / 47.2 8/30/2015 9:42:41 AM
27-US52 @ Ice Creek (200026) Status Air Temp Sfc Temp Sub Temp Dew Temp Wind Precip Traffic Updated
Sensor [A]: Atmospheric - 74.8 - - 66.0 1.2 / S - - 8/30/2015 9:42:07 AM
Sensor [0]: SR52 EB Driving Approach Dry - 80.6 82.4 - - - 0 / 9.9 8/30/2015 9:42:07 AM
Sensor [1]: SR52 WB Driving Bridgedeck Dry - 78.8 - - - - 0 / 9.9 8/30/2015 9:42:07 AM
28-US23 @ SLM 6.5 (200027) Status Air Temp Sfc Temp Sub Temp Dew Temp Wind Precip Traffic Updated
Sensor [A]: Atmospheric - 69.1 - - 68.7 3.1 / S - - 8/30/2015 9:40:41 AM
Sensor [0]: US23 NB Driving No Report - - - - - - - 8/30/2015 9:40:41 AM
Sensor [1]: US23 SB Driving No Report - - - - - - - 8/30/2015 9:40:41 AM
29-US 35 @Ross County Garage (MM 16.8) (200028) Status Air Temp Sfc Temp Sub Temp Dew Temp Wind Precip Traffic Updated
Sensor [A]: Atmospheric - 74.5 - - 69.8 0.6 / NW - - 8/30/2015 9:41:56 AM
Sensor [0]: US35 EB Driving Dry - 82.4 79.3 - - - 35 / 62.8 8/30/2015 9:41:56 AM
Sensor [1]: US35 WB Driving Dry - 84.2 - - - - 0 / 47.2 8/30/2015 9:41:56 AM
30-US 23 @Scioto County Garage (MM 9.7) (200029) Status Air Temp Sfc Temp Sub Temp Dew Temp Wind Precip Traffic Updated
Sensor [A]: Atmospheric - 71.2 - - 67.5 0.6 / S - - 8/30/2015 9:41:18 AM
Sensor [0]: US23 NB Driving Dry - 82.4 - - - - 0 / 9.9 8/30/2015 9:41:18 AM
Sensor [1]: US23 SB Driving Dry - 82.4 82.4 - - - 0 / 9.9 8/30/2015 9:41:18 AM
31-USR 50 MM 17.68 (200030) Status Air Temp Sfc Temp Sub Temp Dew Temp Wind Precip Traffic Updated
Sensor [A]: Atmospheric - 72.9 - - 66.0 0.6 / W - - 8/30/2015 9:40:31 AM
Sensor [0]: US50 EB Driving Dry - 78.8 - - - - - 8/30/2015 9:40:31 AM
32-USR 35 @ SR 160 (200031) Status Air Temp Sfc Temp Sub Temp Dew Temp Wind Precip Traffic Updated
Sensor [A]: Atmospheric - 75.4 - - 67.6 - - - 8/30/2015 9:40:33 AM
33-US33@mm9.2 (200032) Status Air Temp Sfc Temp Sub Temp Dew Temp Wind Precip Traffic Updated
Sensor [A]: Atmospheric - 72.9 - - 66.7 1.2 / SE Rain / 0.0 - 8/30/2015 9:42:16 AM
Sensor [0]: US33 EB Driving Dry - 86.0 - - - - - 8/30/2015 9:42:16 AM
Sensor [1]: US33 EB Driving Bridgedeck Dry - 82.4 - - - - - 8/30/2015 9:42:16 AM
34-US33 @ OH7 (200033) Status Air Temp Sfc Temp Sub Temp Dew Temp Wind Precip Traffic Updated
Sensor [A]: Atmospheric - 72.0 - - 67.8 0.6 / NW - - 8/30/2015 9:42:52 AM
Sensor [0]: US-33 EB Driving Departure Trace Moisture - 90.5 80.6 - - - - 8/30/2015 9:42:52 AM
Sensor [1]: US-33 WB Driving Approach Dry - 87.8 - - - - - 8/30/2015 9:42:52 AM
Sensor [2]: US-33 EB Driving Bridgedeck Dry - 80.6 - - - - - 8/30/2015 9:42:52 AM
35-SR7 @ SLM12.7 (200034) Status Air Temp Sfc Temp Sub Temp Dew Temp Wind Precip Traffic Updated
Sensor [A]: Atmospheric - 73.2 - - 67.5 1.2 / SE - - 8/30/2015 9:42:50 AM
Sensor [0]: SR7 NB Driving Lane Dry - 91.4 86.0 - - - - 8/30/2015 9:42:50 AM
Sensor [1]: SR7 SB Driving Lane Dry - 87.8 - - - - - 8/30/2015 9:42:50 AM
36-SR60 @ Monestary Rd (200035) Status Air Temp Sfc Temp Sub Temp Dew Temp Wind Precip Traffic Updated
Sensor [A]: Atmospheric - 74.5 - - 66.2 1.9 / S - - 8/30/2015 9:42:48 AM
Sensor [0]: SR60 EB Lane Dry - 93.2 85.1 - - - - 8/30/2015 9:42:48 AM
Sensor [1]: SR60 WB Lane Dry - 92.3 - - - - - 8/30/2015 9:42:48 AM
37-SR32@SR160 (200036) Status Air Temp Sfc Temp Sub Temp Dew Temp Wind Precip Traffic Updated
Sensor [A]: Atmospheric - 71.2 - - 66.2 0.6 / SE - - 8/30/2015 9:42:17 AM
Sensor [0]: SR32 EB Driving Dry - 78.8 - - - - - 8/30/2015 9:42:17 AM
Sensor [1]: SR32 WB Driving Bridgedeck Dry - 80.6 - - - - - 8/30/2015 9:42:17 AM
38-SR43@SR9 (200037) Status Air Temp Sfc Temp Sub Temp Dew Temp Wind Precip Traffic Updated
Sensor [A]: Atmospheric - 69.6 - - 65.1 1.2 / S - - 8/30/2015 9:40:34 AM
Sensor [0]: SR43 NB Dry - 78.8 80.6 - - - - 8/30/2015 9:40:34 AM
Sensor [1]: SR9 SB Dry - 82.4 - - - - - 8/30/2015 9:40:34 AM
39-SR11@SR267 (200038) Status Air Temp Sfc Temp Sub Temp Dew Temp Wind Precip Traffic Updated
Sensor [A]: Atmospheric - 70.2 - - 66.2 - - - 8/30/2015 9:40:29 AM
Sensor [0]: SR11 NB Driving Dry - 77.0 78.8 - - - - 8/30/2015 9:40:29 AM
Sensor [1]: SR11 SB Driving Dry - 78.8 - - - - - 8/30/2015 9:40:29 AM
40-Clinton County Garage (200039) Status Air Temp Sfc Temp Sub Temp Dew Temp Wind Precip Traffic Updated
Sensor [A]: Atmospheric - 70.9 - - 68.4 2.5 / E - - 8/30/2015 9:42:46 AM
41- SR62@SR206 (200042) Status Air Temp Sfc Temp Sub Temp Dew Temp Wind Precip Traffic Updated
Sensor [A]: Atmospheric - 72.0 - - 66.9 - - - 8/30/2015 9:40:26 AM
Sensor [0]: SR62 EB Dry - 77.0 - - - - 1 / 52.2 8/30/2015 9:40:26 AM
Sensor [1]: SR62 WB Dry - 76.1 - - - - 6 / 37.9 8/30/2015 9:40:26 AM
42- SR7@ SLM14.65 (200041) Status Air Temp Sfc Temp Sub Temp Dew Temp Wind Precip Traffic Updated
Sensor [A]: Atmospheric - 72.9 - - 66.7 0.6 / S - - 8/30/2015 9:40:35 AM
Sensor [0]: SR7 Passing Dry - 81.5 78.8 - - - - 8/30/2015 9:40:35 AM
Sensor [1]: SR7 NB Driving Dry - 73.4 - - - - - 8/30/2015 9:40:35 AM
51-IR 70 West of CR 320 (0.8 MM) (200050) Status Air Temp Sfc Temp Sub Temp Dew Temp Wind Precip Traffic Updated
Sensor [A]: Atmospheric - 69.8 - - 68.7 2.5 / N - - 8/30/2015 9:40:50 AM
Sensor [0]: IR70 EB Driving Dry - 78.8 78.8 - - - 56 / 62.1 8/30/2015 9:40:50 AM
Sensor [1]: IR70 WB Driving Dry - 77.0 - - - - 60 / 60.3 8/30/2015 9:40:50 AM
52-18 MM MOT/PRE (200051) Status Air Temp Sfc Temp Sub Temp Dew Temp Wind Precip Traffic Updated
Sensor [A]: Atmospheric - 70.0 - - 67.5 5.6 / S - - 8/30/2015 9:40:52 AM
Sensor [2]: IR70 WB Driving Dry - 73.4 - - - - 26 / 62.8 8/30/2015 9:40:52 AM
53-CLA-70 @ I675 (200052) Status Air Temp Sfc Temp Sub Temp Dew Temp Wind Precip Traffic Updated
Sensor [A]: Atmospheric - 72.1 - - 69.1 3.7 / SW - - 8/30/2015 9:40:29 AM
Sensor [0]: I675 SB Passing Bridgedeck Dry - 77.0 - - - - 0 / 9.9 8/30/2015 9:40:29 AM
Sensor [1]: I675 SB Passing Departure Dry - 78.8 - - - - 0 / 9.9 8/30/2015 9:40:29 AM
54-IR70 MM 62 (200053) Status Air Temp Sfc Temp Sub Temp Dew Temp Wind Precip Traffic Updated
Sensor [A]: Atmospheric - 71.8 - - 68.5 4.3 / SW - - 8/30/2015 9:42:31 AM
Sensor [0]: I70 EB Driving Dry - 77.0 78.8 - - - 0 / 9.9 8/30/2015 9:42:31 AM
Sensor [1]: I70 WB Passing Dry - 77.0 - - - - 0 / 9.9 8/30/2015 9:42:31 AM
55-IR70 MM 142 (200054) Status Air Temp Sfc Temp Sub Temp Dew Temp Wind Precip Traffic Updated
Sensor [A]: Atmospheric - 70.5 - - 69.1 - - - 8/30/2015 9:40:53 AM
Sensor [0]: IR70 EB Driving Dry - 78.8 78.8 - - - 48 / 64.0 8/30/2015 9:40:53 AM
Sensor [1]: IR70 WB Driving Dry - 78.8 - - - - 35 / 39.8 8/30/2015 9:40:53 AM
Sensor [2]: IR70 EB Passing Dry - 78.8 - - - - 25 / 44.1 8/30/2015 9:40:53 AM
Sensor [3]: IR70 WB Passing Dry - 78.8 - - - - 47 / 62.8 8/30/2015 9:40:53 AM
56-IR70 MM 169 (200055) Status Air Temp Sfc Temp Sub Temp Dew Temp Wind Precip Traffic Updated
Sensor [A]: Atmospheric - 72.0 - - 67.3 1.2 / N - - 8/30/2015 9:05:55 AM
Sensor [1]: IR70 WB Driving Dry - 78.8 - - - - 25 / 62.8 8/30/2015 9:05:55 AM
57-IR70 MM 198 (200056) Status Air Temp Sfc Temp Sub Temp Dew Temp Wind Precip Traffic Updated
Sensor [A]: Atmospheric - 71.4 - - 68.4 1.2 / SE - - 8/30/2015 9:41:05 AM
Sensor [1]: IR70 EB Passing Dry - 80.6 - - - - 1 / 26.7 8/30/2015 9:41:05 AM
Sensor [2]: IR70 WB Passing Dry - 78.8 - - - - 20 / 57.8 8/30/2015 9:41:05 AM
Sensor [3]: IR70 WB Driving (East) Dry - 78.8 - - - - 39 / 57.8 8/30/2015 9:41:05 AM
Sensor [4]: IR70 WB Driving (West) Dry - 77.0 - - - - - 8/30/2015 9:41:05 AM
58-IR470 MM 6 (200057) Status Air Temp Sfc Temp Sub Temp Dew Temp Wind Precip Traffic Updated
Sensor [A]: Atmospheric - 72.0 - - 67.6 0.6 / NE - - 8/30/2015 9:42:47 AM
Sensor [0]: IR470 EB Driving Dry - 82.4 86.0 - - - 30 / 44.1 8/30/2015 9:42:47 AM
Sensor [1]: IR470 WB Driving Dry - 80.6 - - - - 10 / 64.0 8/30/2015 9:42:47 AM
59- US 127 @ SR 744 (200058) Status Air Temp Sfc Temp Sub Temp Dew Temp Wind Precip Traffic Updated
Sensor [A]: Atmospheric - 72.0 - - 69.8 1.2 / SE - - 8/30/2015 9:40:24 AM
Sensor [0]: US127 NB Bridgedeck Dry - 80.6 - - - - 55 / 64.0 8/30/2015 9:40:24 AM
Sensor [1]: US127 SB Bridgedeck Dry - 80.1 - - - - 31 / 70.8 8/30/2015 9:40:24 AM
60-IR71 MM 62 (200059) Status Air Temp Sfc Temp Sub Temp Dew Temp Wind Precip Traffic Updated
Sensor [A]: Atmospheric - 73.0 - - 66.4 7.5 / S - - 8/30/2015 9:41:37 AM
Sensor [0]: IR71 SB Center Dry - 86.9 - - - - 7 / 62.8 8/30/2015 9:41:37 AM
Sensor [1]: IR71 NB Driving Dry - 78.8 77.0 - - - 0 / 9.9 8/30/2015 9:41:37 AM
Sensor [2]: IR71 NB Passing Bridgedeck Dry - 78.8 - - - - 0 / 9.9 8/30/2015 9:41:37 AM
61-IR71 MM 79 (200060) Status Air Temp Sfc Temp Sub Temp Dew Temp Wind Precip Traffic Updated
Sensor [A]: Atmospheric - 71.8 - - 66.7 3.1 / NW - - 8/30/2015 9:41:42 AM
Sensor [0]: IR71 NB Driving Bridgedeck Dry - 78.8 75.2 - - - 0 / 9.9 8/30/2015 9:41:42 AM
Sensor [1]: IR71 NB Driving Dry - 78.8 - - - - 0 / 9.9 8/30/2015 9:41:42 AM
62- Cemetary Rd. Over I-270 (200061) Status Air Temp Sfc Temp Sub Temp Dew Temp Wind Precip Traffic Updated
Sensor [A]: Atmospheric - 70.3 - - 70.9 1.2 / S - - 8/30/2015 9:40:20 AM
63-IR 71 @ Morrow/Delaware County Line (200062) Status Air Temp Sfc Temp Sub Temp Dew Temp Wind Precip Traffic Updated
Sensor [A]: Atmospheric - 68.2 - - 66.4 1.2 / Unknown - - 8/30/2015 9:40:46 AM
64-I71 MM 158 (200063) Status Air Temp Sfc Temp Sub Temp Dew Temp Wind Precip Traffic Updated
Sensor [A]: Atmospheric - 68.9 - - 64.9 1.2 / S - - 8/30/2015 9:42:19 AM
Sensor [0]: IR71 NB Driving Dry - 75.2 77.0 - - - 0 / 9.9 8/30/2015 9:42:19 AM
Sensor [1]: IR71 SB Driving Trace Moisture - 75.2 - - - - 0 / 9.9 8/30/2015 9:42:19 AM
65-IR71 MM 174 (200064) Status Air Temp Sfc Temp Sub Temp Dew Temp Wind Precip Traffic Updated
Sensor [A]: Atmospheric - 70.3 - - 65.1 1.2 / S - - 8/30/2015 9:42:23 AM
Sensor [0]: IR71 NB Driving Dry - 77.0 77.0 - - - 0 / 9.9 8/30/2015 9:42:23 AM
Sensor [1]: IR71 SB Center Dry - 75.2 - - - - 0 / 9.9 8/30/2015 9:42:23 AM
66-IR71 MM 195.55 (200065) Status Air Temp Sfc Temp Sub Temp Dew Temp Wind Precip Traffic Updated
Sensor [A]: Atmospheric - 68.5 - - 66.4 0.6 / S - - 8/30/2015 9:40:21 AM
Sensor [0]: IR71 North Bound Driving Lane Dry - 71.6 77.0 - - - 4 / 55.3 8/30/2015 9:40:21 AM
Sensor [1]: IR71 South Bound Passing Lane Dry - 73.4 - - - - 0 / 54.1 8/30/2015 9:40:21 AM
Sensor [2]: IR71 South Bound Driving Lane Dry - 73.4 - - - - 0 / 21.7 8/30/2015 9:40:21 AM
67-IR71 MM 209 (200066) Status Air Temp Sfc Temp Sub Temp Dew Temp Wind Precip Traffic Updated
Sensor [A]: Atmospheric - 67.8 - - 64.2 3.1 / NW - - 8/30/2015 9:42:26 AM
Sensor [0]: IR71 NB Driving Dry - 75.2 77.0 - - - 0 / 9.9 8/30/2015 9:42:26 AM
Sensor [1]: IR71 SB Driving Bridgedeck Dry - 75.2 - - - - 0 / 9.9 8/30/2015 9:42:26 AM
68-IR271 @ IR77 (200067) Status Air Temp Sfc Temp Sub Temp Dew Temp Wind Precip Traffic Updated
Sensor [A]: Atmospheric - 69.4 - - 65.8 1.2 / SE - - 8/30/2015 9:42:28 AM
Sensor [0]: I271 SB Passing Bridgedeck Dry - 73.4 - - - - 0 / 9.9 8/30/2015 9:42:28 AM
69-IR275 MM 21 (200068) Status Air Temp Sfc Temp Sub Temp Dew Temp Wind Precip Traffic Updated
Sensor [A]: Atmospheric - 74.1 - - 68.0 1.9 / SW - - 8/30/2015 9:41:50 AM
Sensor [0]: IR275 NB Driving Dry - 82.4 80.6 - - - 0 / 9.9 8/30/2015 9:41:50 AM
Sensor [1]: IR275 SB Driving Dry - 82.4 - - - - 0 / 9.9 8/30/2015 9:41:50 AM
70-IR275 HAM/CLER (200069) Status Air Temp Sfc Temp Sub Temp Dew Temp Wind Precip Traffic Updated
Sensor [A]: Atmospheric - 72.0 - - 68.0 3.1 / S - - 8/30/2015 9:40:42 AM
Sensor [0]: I275 EB Driving Dry - 78.8 78.8 - - - 0 / 62.1 8/30/2015 9:40:42 AM
Sensor [1]: I275 WB Driving Dry - 75.2 - - - - 0 / 60.9 8/30/2015 9:40:42 AM
71-I675 MONT/GRE (200070) Status Air Temp Sfc Temp Sub Temp Dew Temp Wind Precip Traffic Updated
Sensor [A]: Atmospheric - 72.5 - - 66.6 4.3 / SE - - 8/30/2015 9:41:12 AM
Sensor [0]: I675 NB Driving Dry - 77.0 77.0 - - - 46 / 60.9 8/30/2015 9:41:12 AM
Sensor [1]: I675 SB Driving Dry - 78.8 - - - - 97 / 62.8 8/30/2015 9:41:12 AM
72-18 MM BUT/HAM (200071) Status Air Temp Sfc Temp Sub Temp Dew Temp Wind Precip Traffic Updated
Sensor [A]: Atmospheric - 75.2 - - 66.4 0.6 / SE - - 8/30/2015 9:41:08 AM
Sensor [0]: IR75 NB Passing Dry - 82.4 82.4 - - - - 8/30/2015 9:41:08 AM
Sensor [1]: IR75 SB Driving Dry - 84.2 - - - - - 8/30/2015 9:41:08 AM
73-I75mm27.5 SB (200072) Status Air Temp Sfc Temp Sub Temp Dew Temp Wind Precip Traffic Updated
Sensor [A]: Atmospheric - 74.3 - - 67.5 4.3 / S - - 8/30/2015 9:40:41 AM
Sensor [0]: IR75 NB Driving Dry - 84.2 - - - - - 8/30/2015 9:40:41 AM
Sensor [1]: IR75 SB Driving Dry - 86.0 - - - - - 8/30/2015 9:40:41 AM
74-IR75 MM 40 (200073) Status Air Temp Sfc Temp Sub Temp Dew Temp Wind Precip Traffic Updated
Sensor [A]: Atmospheric - 72.1 - - 70.3 5.6 / SW - - 8/30/2015 9:41:13 AM
Sensor [0]: IR75 NB Driving Dry - 78.8 78.8 - - - 26 / 14.3 8/30/2015 9:41:13 AM
Sensor [1]: IR75 SB Driving Dry - 78.8 - - - - 9 / 19.3 8/30/2015 9:41:13 AM
75-SR 16 @ CR 34 W. Carlisle Rd (MM 4.3) (200074) Status Air Temp Sfc Temp Sub Temp Dew Temp Wind Precip Traffic Updated
Sensor [A]: Atmospheric - 69.1 - - 68.9 1.2 / S Rain / 0.0 - 8/30/2015 9:40:39 AM
Sensor [0]: SR16 EB Driving Bridgedeck Dry - 75.2 73.4 - - - - 8/30/2015 9:40:39 AM
76-IR75 MM 84 (200075) Status Air Temp Sfc Temp Sub Temp Dew Temp Wind Precip Traffic Updated
Sensor [A]: Atmospheric - 69.3 - - 69.1 2.5 / S - - 8/30/2015 9:42:21 AM
77-IR75 MM 105 (200076) Status Air Temp Sfc Temp Sub Temp Dew Temp Wind Precip Traffic Updated
Sensor [A]: Atmospheric - 69.3 - - 69.3 - - - 8/30/2015 9:41:19 AM
Sensor [0]: IR75 NB Driving Dry - 73.4 68.2 - - - 0 / 9.9 8/30/2015 9:41:19 AM
Sensor [1]: IR75 SB Driving Dry - 77.0 - - - - 0 / 9.9 8/30/2015 9:41:19 AM
78-IR75 MM 119 (200077) Status Air Temp Sfc Temp Sub Temp Dew Temp Wind Precip Traffic Updated
Sensor [A]: Atmospheric - 71.1 - - 66.7 3.1 / S - - 8/30/2015 9:41:21 AM
Sensor [0]: IR75 NB Driving Wet - 77.0 68.4 - - - 0 / 9.9 8/30/2015 9:41:21 AM
Sensor [1]: IR75 SB Driving Dry - 77.0 - - - - 0 / 9.9 8/30/2015 9:41:21 AM
79-IR 75 @ Allen/Hancock County Line (200078) Status Air Temp Sfc Temp Sub Temp Dew Temp Wind Precip Traffic Updated
Sensor [A]: Atmospheric - 71.4 - - 66.4 - - - 8/30/2015 9:42:36 AM
Sensor [0]: IR75 NB Driving Dry - 75.2 77.0 - - - 0 / 9.9 8/30/2015 9:42:36 AM
Sensor [1]: IR75 SB Driving Dry - 77.0 - - - - 0 / 9.9 8/30/2015 9:42:36 AM
80-IR 77@ SR 7 Interchange (200079) Status Air Temp Sfc Temp Sub Temp Dew Temp Wind Precip Traffic Updated
Sensor [A]: Atmospheric - 74.8 - - 67.3 1.9 / SE - - 8/30/2015 9:40:39 AM
Sensor [0]: I77 SB Driving Lane Dry - 79.7 - - - - - 8/30/2015 9:40:39 AM
81-IR77 MM 16 (200080) Status Air Temp Sfc Temp Sub Temp Dew Temp Wind Precip Traffic Updated
Sensor [A]: Atmospheric - 71.4 - - 69.3 0.6 / S - - 8/30/2015 9:46:42 AM
Sensor [0]: IR77 SB Driving Dry - 81.5 - - - - - 8/30/2015 9:46:42 AM
82-IR77 MM 36 (200081) Status Air Temp Sfc Temp Sub Temp Dew Temp Wind Precip Traffic Updated
Sensor [A]: Atmospheric - 71.8 - - 68.5 3.7 / S - - 8/30/2015 9:40:29 AM
Sensor [0]: IR77 SB Driving No Report - - - - - - 27 / 64.0 8/30/2015 9:40:29 AM
Sensor [1]: IR77 NB Driving No Report - - - - - - 0 / 52.8 8/30/2015 9:40:29 AM
83-IR77 MM 59 (200082) Status Air Temp Sfc Temp Sub Temp Dew Temp Wind Precip Traffic Updated
Sensor [A]: Atmospheric - 71.6 - - 68.0 1.9 / SW - - 8/30/2015 9:42:54 AM
Sensor [0]: IR77 NB Driving Dry - 80.6 78.8 - - - 0 / 5.0 8/30/2015 9:42:54 AM
Sensor [1]: IR77 SB Driving Dry - 82.4 - - - - 0 / 5.0 8/30/2015 9:42:54 AM
84-IR 77 @ Stark/Tuscarawas County Line (200083) Status Air Temp Sfc Temp Sub Temp Dew Temp Wind Precip Traffic Updated
Sensor [A]: Atmospheric - 70.9 - - 68.2 3.1 / S - - 8/30/2015 9:42:12 AM
Sensor [0]: IR77 NB Passing Lane Dry - 81.0 77.2 - - - 0 / 52.8 8/30/2015 9:42:12 AM
Sensor [1]: IR77 SB Passing Lane Dry - 77.2 - - - - 0 / 6.8 8/30/2015 9:42:12 AM
85-SR2 @ Huron River (200084) Status Air Temp Sfc Temp Sub Temp Dew Temp Wind Precip Traffic Updated
Sensor [A]: Atmospheric - 68.9 - - 66.6 1.9 / NE - - 8/30/2015 9:43:02 AM
Sensor [0]: SR2 WB Driving Appraoch Dry - 71.6 77.0 - - - 8959 / 154.1 8/30/2015 9:43:02 AM
Sensor [1]: SR2 EB Driving Departure Dry - 71.6 - - - - 1 / 5.0 8/30/2015 9:43:02 AM
86-IR90 @ SR57 (200085) Status Air Temp Sfc Temp Sub Temp Dew Temp Wind Precip Traffic Updated
Sensor [A]: Atmospheric - 68.4 - - 68.4 1.2 / W Rain / 0.0 - 8/30/2015 9:40:21 AM
Sensor [0]: IR90 EB Driving No Report - - - - - - 34 / 6.2 8/30/2015 9:40:21 AM
Sensor [1]: IR90 WB Driving Dry - 70.7 - - - - 0 / 5.0 8/30/2015 9:40:21 AM
87-IR90 ATB/LAKE (200086) Status Air Temp Sfc Temp Sub Temp Dew Temp Wind Precip Traffic Updated
Sensor [A]: Atmospheric - 70.9 - - 67.3 2.5 / SE - - 8/30/2015 9:43:04 AM
Sensor [1]: I90 EB Driving Dry - 75.2 - - - - 2 / 5.0 8/30/2015 9:43:04 AM
Sensor [2]: I90 WB Passing Dry - 73.4 - - - - 52 / 59.0 8/30/2015 9:43:04 AM
88-IR90 @ SR11 (200087) Status Air Temp Sfc Temp Sub Temp Dew Temp Wind Precip Traffic Updated
Sensor [A]: Atmospheric - 68.4 - - 68.0 3.7 / SW - - 8/30/2015 9:40:17 AM
Sensor [0]: IR90 EB Passing Dry - 72.5 73.0 - - - 0 / 158.4 8/30/2015 9:40:17 AM
Sensor [1]: IR90 WB Passing (Under Construction) Dry - 84.2 - - - - 31 / 65.2 4/28/2015 2:02:22 PM
89-IR90 @ PA Line (200088) Status Air Temp Sfc Temp Sub Temp Dew Temp Wind Precip Traffic Updated
Sensor [A]: Atmospheric - 70.0 - - 69.1 3.7 / W - - 8/30/2015 9:43:51 AM
Sensor [0]: IR90 EB Driving Bridgedeck Wet - 74.3 75.0 - - - - 8/30/2015 9:43:51 AM
Sensor [1]: IR90 EB Passing Dry - 70.3 - - - - - 8/30/2015 9:43:51 AM
Sensor [2]: IR90 WB Passing Bridgedeck Dry - 73.9 - - - - - 8/30/2015 9:43:51 AM
Sensor [3]: IR90 WB Driving Dry - 73.4 - - - - - 8/30/2015 9:43:51 AM
90-IR80 @ PA Line (200089) Status Air Temp Sfc Temp Sub Temp Dew Temp Wind Precip Traffic Updated
Sensor [A]: Atmospheric - 69.6 - - 69.6 1.9 / S - - 8/30/2015 9:43:02 AM
Sensor [0]: IR80 EB Driving Dry - 73.2 75.2 - - - 21 / 49.1 8/30/2015 9:43:02 AM
Sensor [1]: IR80 WB Driving Dry - 75.7 - - - - 0 / 47.8 8/30/2015 9:43:02 AM
91-IR76 MAH/POR (200090) Status Air Temp Sfc Temp Sub Temp Dew Temp Wind Precip Traffic Updated
Sensor [A]: Atmospheric - 68.9 - - 66.0 1.9 / SW - - 8/30/2015 9:43:05 AM
Sensor [0]: IR76 EB Passing Dry - 77.0 77.0 - - - 6 / 9.9 8/30/2015 9:43:05 AM
Sensor [1]: IR76 WB Passing Bridgedeck Dry - 73.4 - - - - 22 / 55.9 8/30/2015 9:43:05 AM
Sensor [2]: IR76 EB Driving Dry - 71.6 - - - - 17 / 64.0 8/30/2015 9:43:05 AM
Sensor [3]: IR76 WB Driving Bridgedeck Dry - 73.4 - - - - 43 / 64.0 8/30/2015 9:43:05 AM
92-IR76 POR/SUM (200091) Status Air Temp Sfc Temp Sub Temp Dew Temp Wind Precip Traffic Updated
Sensor [A]: Atmospheric - 66.7 - - 63.9 3.7 / S - - 8/30/2015 9:40:24 AM
Sensor [1]: IR76 EB Driving Dry - 77.0 - - - - 43 / 5.0 8/30/2015 9:40:24 AM
Sensor [2]: IR76 WB Driving Dry - 77.0 75.2 - - - 0 / 64.0 8/30/2015 9:40:24 AM
94-SR11 ATB/TRUM (200093) Status Air Temp Sfc Temp Sub Temp Dew Temp Wind Precip Traffic Updated
Sensor [A]: Atmospheric - 67.1 - - 67.1 1.9 / S Rain / 0.0 - 8/30/2015 9:42:38 AM
Sensor [0]: SR11 NB Driving Dry - 73.4 78.8 - - - 22 / 64.0 8/30/2015 9:42:38 AM
Sensor [1]: SR11 SB Driving Dry - 72.9 - - - - 2 / 9.9 8/30/2015 9:42:38 AM
95-SR11 MAH/COL (200094) Status Air Temp Sfc Temp Sub Temp Dew Temp Wind Precip Traffic Updated
Sensor [A]: Atmospheric - 69.6 - - 68.0 4.3 / S - - 8/30/2015 9:39:00 AM
Sensor [0]: SR11 NB Driving Dry - - 78.1 - - - 0 / 64.0 8/30/2015 9:39:00 AM
Sensor [1]: SR11 SB Driving Dry - 77.0 - - - - 0 / 9.9 8/30/2015 9:39:00 AM
96-US 33 @ SR 78/SR 691 (200095) Status Air Temp Sfc Temp Sub Temp Dew Temp Wind Precip Traffic Updated
Sensor [A]: Atmospheric - 73.0 - - 68.4 2.5 / SE - - 8/30/2015 9:40:14 AM
Sensor [0]: US33 EB Driving Bridgedeck Dry - 82.4 80.6 - - - - 8/30/2015 9:40:14 AM
97-SR315 @ I270 (200096) Status Air Temp Sfc Temp Sub Temp Dew Temp Wind Precip Traffic Updated
Sensor [A]: Atmospheric - 66.0 - - 63.0 - - - 8/13/2015 11:10:08 PM
Sensor [0]: I270 WB Passing Dry - 77.0 86.0 - - - 4 / 26.7 8/13/2015 11:10:08 PM
Sensor [1]: IR Ice Detection Sensor Dry - - - - - - 0 / 42.3 8/13/2015 11:10:08 PM
98-I270 SB Ramp to SR161 EB (200097) Status Air Temp Sfc Temp Sub Temp Dew Temp Wind Precip Traffic Updated
Sensor [A]: Atmospheric - 70.3 - - 68.5 2.5 / NW - - 8/30/2015 9:40:31 AM
Sensor [1]: I270 SB to SR161 EB Flyover Ramp Dry - 73.4 - - - - 0 / 50.3 8/30/2015 9:40:31 AM
99-US30 @ Dalton (200098) Status Air Temp Sfc Temp Sub Temp Dew Temp Wind Precip Traffic Updated
Sensor [A]: Atmospheric - 68.2 - - 67.8 0.6 / S - - 8/30/2015 9:40:28 AM
Sensor [0]: US30 EB Driving Dry - 71.2 70.0 - - - 0 / 50.3 8/30/2015 9:40:28 AM
Sensor [1]: US30 WB Driving Bridgedeck Dry - 70.3 - - - - 11 / 57.2 8/30/2015 9:40:28 AM
100-SR225 @ Berlin Reservoir (200099) Status Air Temp Sfc Temp Sub Temp Dew Temp Wind Precip Traffic Updated
Sensor [A]: Atmospheric - 68.4 - - 68.0 1.2 / SW - - 8/30/2015 9:42:48 AM
Sensor [0]: SR225 NB Lane Dry - 72.5 77.4 - - - 0 / 65.2 8/30/2015 9:42:48 AM
Sensor [1]: SR225 SB Bridgedeck Dry - 74.3 - - - - 4 / 9.9 8/30/2015 9:42:48 AM
101-SR45 @ Rock Creek (200100) Status Air Temp Sfc Temp Sub Temp Dew Temp Wind Precip Traffic Updated
Sensor [A]: Atmospheric - 69.6 - - 67.8 - - - 8/30/2015 9:43:07 AM
Sensor [0]: SR45 NB Bridgedeck Dry - 73.4 75.2 - - - 12 / 34.8 8/30/2015 9:43:07 AM
Sensor [1]: SR45 SB Wet - 73.4 - - - - 0 / 39.1 8/30/2015 9:43:07 AM
102-SR 167 / SR 7 @ East Branch Ashtabula River (MM 11.0) (200101) Status Air Temp Sfc Temp Sub Temp Dew Temp Wind Precip Traffic Updated
Sensor [A]: Atmospheric - 68.2 - - 68.2 1.9 / S - - 8/30/2015 9:41:57 AM
Sensor [0]: SR7 NB Dry - 73.9 - - - - 6 / 42.3 8/30/2015 9:41:57 AM
Sensor [1]: SR7 SB Bridgedeck Dry - 72.7 - - - - 0 / 5.0 8/30/2015 9:41:57 AM
103- I-70 @ SR-79 (200102) Status Air Temp Sfc Temp Sub Temp Dew Temp Wind Precip Traffic Updated
Sensor [A]: Atmospheric - 69.8 - - 68.0 1.2 / SE - - 8/30/2015 9:41:11 AM
Sensor [0]: SR79 NB Bridgedeck Dry - 73.4 78.8 - - - 83 / 51.0 8/30/2015 9:41:11 AM
Sensor [1]: SR79 SB Bridgedeck Dry - 73.4 - - - - 36 / 50.3 8/30/2015 9:41:11 AM
Sensor [2]: IR70 EB Driving Dry - 73.4 - - - - 32 / 60.3 8/30/2015 9:41:11 AM
Sensor [3]: IR70 WB Driving Wet - 73.4 - - - - 40 / 51.0 8/30/2015 9:41:11 AM
104-SR 3 KNOX/Ashland (200103) Status Air Temp Sfc Temp Sub Temp Dew Temp Wind Precip Traffic Updated
Sensor [A]: Atmospheric - 66.2 - - 66.0 1.9 / S - - 8/30/2015 9:41:52 AM
Sensor [0]: SR3 SB Dry - 71.6 77.7 - - - 2 / 52.2 8/30/2015 9:41:52 AM
105-IR70/IR75 (200104) Status Air Temp Sfc Temp Sub Temp Dew Temp Wind Precip Traffic Updated
Sensor [A]: Atmospheric - 73.0 - - 61.9 3.7 / S - - 8/30/2015 9:41:10 AM
Sensor [1]: IR70 WB Driving Bridgedeck Dry - 80.6 - - - - 46 / 65.2 8/30/2015 9:41:10 AM
106-SR39 @ Sugarcreek (200105) Status Air Temp Sfc Temp Sub Temp Dew Temp Wind Precip Traffic Updated
Sensor [A]: Atmospheric - 68.9 - - 67.5 6.8 / S - - 8/30/2015 9:40:12 AM
Sensor [0]: SR39 EB Lane Dry - 77.9 - - - - 6 / 51.0 8/30/2015 9:40:12 AM
Sensor [1]: SR39 WB Lane Dry - 78.3 78.4 - - - 131 / 47.8 8/30/2015 9:40:12 AM
107-US250 @ Ulrichsville (200106) Status Air Temp Sfc Temp Sub Temp Dew Temp Wind Precip Traffic Updated
Sensor [A]: Atmospheric - 72.0 - - 68.4 0.6 / SW - - 8/30/2015 9:42:55 AM
Sensor [0]: US250 EB Driving Dry - 82.4 80.6 - - - 0 / 5.0 8/30/2015 9:42:55 AM
Sensor [1]: US250 WB Driving Dry - 82.4 - - - - 0 / 5.0 8/30/2015 9:42:55 AM
108-SR 183 @ Minerva / Linden Road NW (MM 7.9) (200107) Status Air Temp Sfc Temp Sub Temp Dew Temp Wind Precip Traffic Updated
Sensor [A]: Atmospheric - 68.9 - - 69.1 - - - 8/30/2015 9:41:47 AM
Sensor [0]: SR183 NB Bridgedeck Dry - 76.1 77.7 - - - 9 / 70.8 8/30/2015 9:41:47 AM
Sensor [1]: SR183 SB Dry - 77.4 - - - - 4 / 9.9 8/30/2015 9:41:47 AM
109-SR 22 @ East of SR 151 at the RR overpass (MM 24.6) (200108) Status Air Temp Sfc Temp Sub Temp Dew Temp Wind Precip Traffic Updated
Sensor [A]: Atmospheric - 72.0 - - 67.6 1.9 / W - - 8/30/2015 9:42:59 AM
Sensor [0]: SR22E Driving Lane Dry - 89.6 71.6 - - - 19 / 67.1 8/30/2015 9:42:59 AM
Sensor [1]: SR22W Passing Lane Dry - 90.5 - - - - 2 / 73.9 8/30/2015 9:42:59 AM
110-SR7 @ SR213 (200109) Status Air Temp Sfc Temp Sub Temp Dew Temp Wind Precip Traffic Updated
Sensor [A]: Atmospheric - 73.0 - - 71.4 1.2 / SE - - 8/30/2015 9:41:01 AM
Sensor [0]: SR7 NB Driving Dry - 81.1 80.2 - - - 6 / 42.3 8/30/2015 9:41:01 AM
111-I70 MM 114 (200110) Status Air Temp Sfc Temp Sub Temp Dew Temp Wind Precip Traffic Updated
Sensor [A]: Atmospheric - 70.5 - - 68.2 3.7 / W - - 8/30/2015 9:40:47 AM
Sensor [1]: IR70 WB Passing Bridgedeck Dry - 73.4 - - - - 71 / 75.8 8/30/2015 9:40:47 AM
112-USR 27 @ 21 MM (200111) Status Air Temp Sfc Temp Sub Temp Dew Temp Wind Precip Traffic Updated
Sensor [A]: Atmospheric - 73.2 - - 67.1 5.6 / W - - 8/30/2015 9:41:54 AM
Sensor [0]: SR27 NB Lane Dry - 93.2 67.5 - - - 9 / 60.3 8/30/2015 9:41:54 AM
Sensor [1]: SR27 SB Lane Dry - 87.8 - - - - 1 / 9.9 8/30/2015 9:41:54 AM
113-I-275 @ USR 52 (200112) Status Air Temp Sfc Temp Sub Temp Dew Temp Wind Precip Traffic Updated
Sensor [A]: Atmospheric - 71.4 - - 67.3 1.2 / SW - - 8/30/2015 9:40:43 AM
Sensor [1]: I275 NB Driving Dry - 77.0 - - - - 35 / 62.8 8/30/2015 9:40:43 AM
114-IR71 @ US36 (38000) Status Air Temp Sfc Temp Sub Temp Dew Temp Wind Precip Traffic Updated
Sensor [A]: Atmospheric - 68.9 - - 64.0 0.6 / N - - 8/30/2015 9:40:45 AM
Sensor [1]: US36 WB Departure Dry - 73.4 - - - - - 8/30/2015 9:40:45 AM
115-IR71 @ Schrock Road (38001) Status Air Temp Sfc Temp Sub Temp Dew Temp Wind Precip Traffic Updated
Sensor [A]: Atmospheric - 69.8 - - 68.9 1.2 / SE - - 8/30/2015 9:40:46 AM
Sensor [0]: Schrock Rd Approach Error - - - - - - - 8/30/2015 9:40:46 AM
Sensor [1]: Schrock Rd Bridgedeck Wet - 74.1 - - - - - 8/30/2015 9:40:46 AM
116-IR70W @ I270 (38004) Status Air Temp Sfc Temp Sub Temp Dew Temp Wind Precip Traffic Updated
Sensor [A]: Atmospheric - - - - - 5.6 / SE - - 8/28/2015 12:20:48 PM
Sensor [0]: I-70 EB Drive Error - - - - - - - 8/28/2015 12:20:48 PM
117-IR70 @ SR29 (38005) Status Air Temp Sfc Temp Sub Temp Dew Temp Wind Precip Traffic Updated
Sensor [A]: Atmospheric - 69.8 - - 63.5 2.5 / SE - - 8/30/2015 9:41:05 AM
Sensor [2]: I70 WB Driving Dry - 73.9 - - - - - 8/30/2015 9:41:05 AM
118-IR70/IR71/SR315 (38006) Status Air Temp Sfc Temp Sub Temp Dew Temp Wind Precip Traffic Updated
Sensor [A]: Atmospheric - 70.5 - - 64.9 5.0 / S - - 8/30/2015 9:35:46 AM
Sensor [0]: SR315 NB Driving Dry - 78.8 - - - - - 8/30/2015 9:35:46 AM
Sensor [1]: I70 WB Driving Dry - 77.0 - - - - - 8/30/2015 9:35:46 AM
119-IR71S @ I270 (38007) Status Air Temp Sfc Temp Sub Temp Dew Temp Wind Precip Traffic Updated
Sensor [A]: Atmospheric - 33.1 - - 23.2 7.5 / N - - 1/20/2014 7:31:46 AM
Sensor [2]: I270 EB Passing Error - - - - - - - 1/20/2014 7:31:46 AM
120-US33 @ Hamilton Road (38010) Status Air Temp Sfc Temp Sub Temp Dew Temp Wind Precip Traffic Updated
Sensor [A]: Atmospheric - 71.1 - - 59.5 1.9 / N - - 8/30/2015 9:41:31 AM
Sensor [0]: US33 EB Passing Dry - 75.2 - - - - - 8/30/2015 9:41:31 AM
121-I-670 Over Airport Connector (38014) Status Air Temp Sfc Temp Sub Temp Dew Temp Wind Precip Traffic Updated
Sensor [A]: Atmospheric - 71.6 - - - 1.9 / S - - 8/30/2015 9:41:33 AM
Sensor [0]: Airport Connector Bridgedeck Trace Moisture - 74.5 - - - - - 8/30/2015 9:41:33 AM
Sensor [1]: I670 EB Passing Wet - 76.5 - - - - - 8/30/2015 9:41:33 AM
Sensor [2]: I670 WB Passing Wet - 75.6 - - - - - 8/30/2015 9:41:33 AM
122-Medina Line Rd. Over I-271 (612000) Status Air Temp Sfc Temp Sub Temp Dew Temp Wind Precip Traffic Updated
Sensor [A]: Atmospheric - 70.3 - - 67.6 - - - 8/30/2015 9:40:07 AM
Sensor [0]: SB Bridge Dry - 79.5 - - - - - 8/30/2015 9:40:07 AM
Sensor [1]: SB Road Dry - 75.2 73.4 - - - - 8/30/2015 9:40:07 AM
123-Steels Corner Rd. /Mud Creek (612003) Status Air Temp Sfc Temp Sub Temp Dew Temp Wind Precip Traffic Updated
Sensor [A]: Atmospheric - 70.2 - - 69.3 1.9 / S - - 8/30/2015 9:40:08 AM
Sensor [0]: WB Bridge Dry - 76.5 - - - - - 8/30/2015 9:40:08 AM
Sensor [1]: WB Road Dry - 77.0 77.0 - - - - 8/30/2015 9:40:08 AM
124-Old Mill Rd. Over I-480 (612004) Status Air Temp Sfc Temp Sub Temp Dew Temp Wind Precip Traffic Updated
Sensor [A]: Atmospheric - 69.4 - - 69.1 1.9 / W - - 8/30/2015 9:40:09 AM
Sensor [0]: I480 EB Driving Dry - 73.4 - - - - - 8/30/2015 9:40:09 AM
Sensor [1]: I480 WB Driving Dry - 73.4 73.4 - - - - 8/30/2015 9:40:09 AM
Sensor [2]: Old Mill Rd Bridgedeck Dry - 77.0 - - - - - 8/30/2015 9:40:09 AM
125-Ridgewood Rd. Over Rt 21 (612006) Status Air Temp Sfc Temp Sub Temp Dew Temp Wind Precip Traffic Updated
Sensor [A]: Atmospheric - 69.4 - - 68.5 - - - 8/30/2015 9:40:11 AM
Sensor [0]: EB Bridge Deck Dry - 75.2 - - - - - 8/30/2015 9:40:11 AM
126-Killian Rd. Over I-77 (612011) Status Air Temp Sfc Temp Sub Temp Dew Temp Wind Precip Traffic Updated
Sensor [A]: Atmospheric - 68.5 - - 66.2 3.7 / SW - - 8/30/2015 9:40:17 AM
Sensor [0]: EB Bridge Dry - 78.6 81.1 - - - - 8/30/2015 9:40:17 AM
127-US 6 Williams County (582000) Status Air Temp Sfc Temp Sub Temp Dew Temp Wind Precip Traffic Updated
Sensor [A]: Atmospheric - 71.6 - - - - - - 8/30/2015 9:40:16 AM
Sensor [2]: US6 EB Error - 78.4 73.4 - - - - 8/30/2015 9:40:16 AM
128-US 20 @ SR 49 (582001) Status Air Temp Sfc Temp Sub Temp Dew Temp Wind Precip Traffic Updated
Sensor [A]: Atmospheric - 71.4 - - 70.0 1.9 / SW - - 8/30/2015 9:40:18 AM
Sensor [0]: US-20 EB Dry - 84.2 - - - - - 8/30/2015 9:40:18 AM
129-US 20 @ ALT US 20 (582002) Status Air Temp Sfc Temp Sub Temp Dew Temp Wind Precip Traffic Updated
Sensor [A]: Atmospheric - 72.3 - - 72.1 3.7 / SW - - 8/30/2015 9:40:20 AM
Sensor [2]: SR-20A WB Approach Dry - 83.8 75.2 - - - - 8/30/2015 9:40:20 AM
Sensor [3]: SR-20A WB Deck Dry - 79.0 - - - - - 8/30/2015 9:40:20 AM
130-US 20A @ SLM 2.5 Fulton (582003) Status Air Temp Sfc Temp Sub Temp Dew Temp Wind Precip Traffic Updated
Sensor [A]: Atmospheric - 70.7 - - 11.7 1.2 / S - - 8/30/2015 9:40:22 AM
Sensor [0]: US-20 EB Deck Error - - - - - - - 8/30/2015 9:40:22 AM
Sensor [1]: US-20 EB Approach Dry - 75.9 - - - - - 8/30/2015 9:40:22 AM
131-US 20 @ CR19 and Bean Creek (MM 9.0) (582004) Status Air Temp Sfc Temp Sub Temp Dew Temp Wind Precip Traffic Updated
Sensor [A]: Atmospheric - 71.8 - - - 3.1 / SW - - 8/30/2015 9:40:24 AM
Sensor [0]: US-20 WB Deck Trace Moisture - 75.0 - - - - - 8/30/2015 9:40:24 AM
Sensor [1]: US-20 EB Approach Dry - 79.3 - - - - - 8/30/2015 9:40:24 AM
132-SR 64 @ County Road N (MM 6.4) (582005) Status Air Temp Sfc Temp Sub Temp Dew Temp Wind Precip Traffic Updated
Sensor [A]: Atmospheric - 71.6 - - 71.2 5.6 / SE - - 8/30/2015 9:40:25 AM
133-US 6 @ SLM .5 (582006) Status Air Temp Sfc Temp Sub Temp Dew Temp Wind Precip Traffic Updated
Sensor [A]: Atmospheric - 73.0 - - 72.3 3.7 / SW - - 8/30/2015 9:40:27 AM
Sensor [0]: US-6 WB Dry - 82.8 66.6 - - - - 8/30/2015 9:40:27 AM
134-SR 108 @ SLM .5 (582007) Status Air Temp Sfc Temp Sub Temp Dew Temp Wind Precip Traffic Updated
Sensor [A]: Atmospheric - 72.5 - - 71.2 8.1 / SW - - 8/30/2015 9:40:09 AM
135-US Rt 6 @ Maumee River (582008) Status Air Temp Sfc Temp Sub Temp Dew Temp Wind Precip Traffic Updated
Sensor [A]: Atmospheric - 72.5 - - 72.5 3.1 / S - - 8/30/2015 9:40:11 AM
Sensor [0]: US-6 EB Deck Error - 77.0 - - - - - 8/30/2015 9:40:11 AM
Sensor [1]: US-6 WB Deck Error - - - - - - - 8/30/2015 9:40:11 AM
136-Rt 65 South Henry County (582009) Status Air Temp Sfc Temp Sub Temp Dew Temp Wind Precip Traffic Updated
Sensor [A]: Atmospheric - 73.8 - - 66.7 6.8 / SW - - 8/30/2015 9:40:16 AM
Sensor [0]: SR-65 NB Dry - 88.7 - - - - - 8/30/2015 9:40:16 AM
137-SR 64 @ County Road N (MM 6.4) (582010) Status Air Temp Sfc Temp Sub Temp Dew Temp Wind Precip Traffic Updated
Sensor [A]: Atmospheric - 72.1 - - 72.0 1.9 / N - - 8/30/2015 9:40:17 AM
Sensor [0]: SR-64 EB Approach Error - - - - - - - 8/30/2015 9:40:17 AM
Sensor [1]: SR-64 EB @ RPU Error - 79.0 - - - - - 8/30/2015 9:40:17 AM
138-SR 295 @ Maumee River (582011) Status Air Temp Sfc Temp Sub Temp Dew Temp Wind Precip Traffic Updated
Sensor [A]: Atmospheric - 69.1 - - 69.1 3.7 / N Rain / 0.0 - 8/30/2015 9:40:20 AM
Sensor [0]: SR-578 SB Maumee River Dry - 75.9 77.7 - - - - 8/30/2015 9:40:20 AM
Sensor [1]: SR-578 SB Dry - 74.3 - - - - - 8/30/2015 9:40:20 AM
139-I-80 & I-475 Lucas ***Under Construction*** (582012) Status Air Temp Sfc Temp Sub Temp Dew Temp Wind Precip Traffic Updated
Sensor [A]: Atmospheric - 72.1 - - 71.6 1.9 / SW - - 10/3/2013 12:40:42 PM
Sensor [0]: I-475 NB Deck Dry - 77.0 - - - - - 10/3/2013 12:40:42 PM
Sensor [1]: I-475 SB Approach Error - - - - - - - 10/3/2013 12:40:42 PM
140-IR 475 @ US 23 Split ***Under Construction*** (582013) Status Air Temp Sfc Temp Sub Temp Dew Temp Wind Precip Traffic Updated
Sensor [A]: Atmospheric - 32.5 - - 18.7 - - - 8/30/2015 9:40:40 AM
141-IR 75 @ SLM 4.9 475 Split (582014) Status Air Temp Sfc Temp Sub Temp Dew Temp Wind Precip Traffic Updated
Sensor [A]: Atmospheric - 69.1 - - 68.0 5.6 / SW - - 8/14/2015 6:30:10 AM
142 - I-280 @ Veterans Glass City Skyway (VGCS) (582016) Status Air Temp Sfc Temp Sub Temp Dew Temp Wind Precip Traffic Updated
Sensor [A]: Atmospheric - 64.2 - - 60.6 13.7 / SW - - 8/20/2015 6:40:29 AM
Sensor [1]: NB I-280 Center Lane Wet - 64.6 - - - - 51 / 51.0 8/20/2015 6:40:29 AM
Sensor [4]: SB I-280 Center Lane Wet - 62.8 - - - - 51 / 55.3 8/20/2015 6:40:29 AM
143-SR 2 @ MP 31.8 Lucas (582017) Status Air Temp Sfc Temp Sub Temp Dew Temp Wind Precip Traffic Updated
Sensor [A]: Atmospheric - 69.4 - - 67.1 3.7 / SE - - 8/30/2015 9:40:48 AM
Sensor [0]: SR-2 EB Deck Trace Moisture - 73.4 - - - - - 8/30/2015 9:40:48 AM
144-IR 75 & Eagleville Rd. (582018) Status Air Temp Sfc Temp Sub Temp Dew Temp Wind Precip Traffic Updated
Sensor [A]: Atmospheric - 76.6 - - 63.0 4.3 / NE - - 8/18/2014 12:00:17 PM
Sensor [0]: I-75 NB Deck Error - - - - - - - 8/18/2014 12:00:17 PM
Sensor [1]: I-75 SB Deck Error - - - - - - - 8/18/2014 12:00:17 PM
145-IR 75 @ SLM 18.36 Wood (582019) Status Air Temp Sfc Temp Sub Temp Dew Temp Wind Precip Traffic Updated
Sensor [A]: Atmospheric - 80.8 - - 54.1 2.5 / E - - 8/7/2014 1:00:20 PM
Sensor [0]: I-75 NB Approach Error - 112.6 - - - - - 8/7/2014 1:00:20 PM
Sensor [1]: I-75 SB Deck Dry - 108.3 - - - - - 8/7/2014 1:00:20 PM
146-I-75 @ I-475 Wood ***Under Construction*** (582020) Status Air Temp Sfc Temp Sub Temp Dew Temp Wind Precip Traffic Updated
Sensor [A]: Atmospheric - 70.9 - - - 4.3 / SE - - 8/30/2015 9:40:21 AM
147-I-75 @ I-80 Wood County (582021) Status Air Temp Sfc Temp Sub Temp Dew Temp Wind Precip Traffic Updated
Sensor [A]: Atmospheric - 70.3 - - 70.3 4.3 / SE - - 8/30/2015 9:40:24 AM
Sensor [0]: I-75 NB Deck Error - 73.9 - - - - - 8/30/2015 9:40:24 AM
Sensor [1]: I-75 SB Deck Error - - - - - - - 8/30/2015 9:40:24 AM
148-US-6 @ Rt. 23 (582022) Status Air Temp Sfc Temp Sub Temp Dew Temp Wind Precip Traffic Updated
Sensor [A]: Atmospheric - 73.2 - - 72.9 3.7 / SE - - 8/30/2015 9:40:31 AM
Sensor [0]: US-6 EB Wet - 78.8 - - - - 0 / 9.9 8/30/2015 9:40:31 AM
Sensor [1]: US-23 NB Wet - 80.6 - - - - 0 / 9.9 8/30/2015 9:40:31 AM
149-US-20 @ Lemoyne Rd. (582023) Status Air Temp Sfc Temp Sub Temp Dew Temp Wind Precip Traffic Updated
Sensor [A]: Atmospheric - 82.2 - - 81.5 3.7 / SE - - 8/30/2015 9:40:32 AM
Sensor [0]: US-20 EB Departure Wet - 76.1 - - - - 11 / 60.9 8/30/2015 9:40:32 AM
150-IR 280 @ SR 420 and CR 308 Libbey Rd (582024) Status Air Temp Sfc Temp Sub Temp Dew Temp Wind Precip Traffic Updated
Sensor [A]: Atmospheric - 69.3 - - 67.5 5.0 / E - - 8/30/2015 9:40:40 AM
151-SR 2 @ Portage River Bridge (582025) Status Air Temp Sfc Temp Sub Temp Dew Temp Wind Precip Traffic Updated
Sensor [A]: Atmospheric - 69.3 - - 67.6 3.1 / E - - 8/30/2015 9:40:42 AM
Sensor [0]: SR-2 EB Departure Wet - 72.5 78.8 - - - - 8/30/2015 9:40:42 AM
Sensor [1]: SR-2 WB Deck Ice Watch - -59.4 - - - - - 8/30/2015 9:40:42 AM
152-SR-2@28.5 Bay Br. (582026) Status Air Temp Sfc Temp Sub Temp Dew Temp Wind Precip Traffic Updated
Sensor [A]: Atmospheric - 70.2 - - 70.0 - - - 8/30/2015 9:40:43 AM
Sensor [3]: SR2 EB Driving Lane - Bridge Deck Wet - 71.6 - - - - 0 / 0.0 8/30/2015 9:40:43 AM
153-US-20 @ Sugar Creek (582027) Status Air Temp Sfc Temp Sub Temp Dew Temp Wind Precip Traffic Updated
Sensor [A]: Atmospheric - 69.3 - - 68.7 3.7 / E - - 8/30/2015 9:40:07 AM
Sensor [0]: US-20 EB Driving Wet - 75.2 74.3 - - - 16 / 54.1 8/30/2015 9:40:07 AM
Sensor [1]: US-20 WB Passing Trace Moisture - 77.9 - - - - 3 / 60.3 8/30/2015 9:40:07 AM
154-US-6 @ Sandusky River Br (582028) Status Air Temp Sfc Temp Sub Temp Dew Temp Wind Precip Traffic Updated
Sensor [A]: Atmospheric - 71.8 - - 71.8 - - - 8/30/2015 9:40:09 AM
Sensor [0]: US-6 EB Approach Dry - 80.6 - - - - - 8/30/2015 9:40:09 AM
Sensor [1]: US-6 WB Deck Dry - 78.3 - - - - - 8/30/2015 9:40:09 AM
155-US 6 @ Pickeral Creek (582029) Status Air Temp Sfc Temp Sub Temp Dew Temp Wind Precip Traffic Updated
Sensor [A]: Atmospheric - 47.7 - - 46.6 3.7 / SE - - 8/30/2015 9:40:12 AM
Sensor [0]: US-6 WB Departure Error - - - - - - - 8/30/2015 9:40:12 AM
Sensor [1]: US-6 WB Deck Wet - 49.3 - - - - - 8/30/2015 9:40:12 AM
156-CR 296 & US 20 MP 31.0 (582030) Status Air Temp Sfc Temp Sub Temp Dew Temp Wind Precip Traffic Updated
Sensor [A]: Atmospheric - 69.8 - - 69.8 1.9 / SE - - 8/30/2015 9:40:17 AM
Sensor [0]: US-20 WB Dry - 78.8 80.2 - - - - 8/30/2015 9:40:17 AM
157-US 23 @ MP 5.5 Seneca (582031) Status Air Temp Sfc Temp Sub Temp Dew Temp Wind Precip Traffic Updated
Sensor [A]: Atmospheric - 71.1 - - 68.5 5.0 / SE - - 8/30/2015 9:40:18 AM
Sensor [0]: US-23 NB Dry - 77.2 - - - - - 8/30/2015 9:40:18 AM
158-SR 12 @ Mp 7.0 Seneca (582032) Status Air Temp Sfc Temp Sub Temp Dew Temp Wind Precip Traffic Updated
Sensor [A]: Atmospheric - 72.1 - - 71.4 3.1 / SE - - 8/30/2015 9:40:20 AM
Sensor [0]: SR-12 WB Dry - 84.2 - - - - - 8/30/2015 9:40:20 AM
159-US 224 @ SR 53 Seneca (582033) Status Air Temp Sfc Temp Sub Temp Dew Temp Wind Precip Traffic Updated
Sensor [A]: Atmospheric - 69.4 - - 68.5 0.6 / SE - - 8/30/2015 9:40:22 AM
Sensor [0]: SR-224 EB Bridge Deck Dry - 76.1 - - - - - 8/30/2015 9:40:22 AM
Sensor [1]: US-224 EB Approach Dry - 77.0 - - - - - 8/30/2015 9:40:22 AM
160-SR 4 @ Aichholz Ditch near CR 8 (MM 2.4) (582034) Status Air Temp Sfc Temp Sub Temp Dew Temp Wind Precip Traffic Updated
Sensor [A]: Atmospheric - 69.8 - - 66.9 4.3 / N - - 8/30/2015 9:40:24 AM
161-I-90 @ SR-252 (562000) Status Air Temp Sfc Temp Sub Temp Dew Temp Wind Precip Traffic Updated
Sensor [A]: Atmospheric - 69.3 - - 69.3 2.5 / S Rain / 0.1 - 8/30/2015 9:40:04 AM
Sensor [2]: I-90 EB N1 Lane Dry - 69.8 - - - - - 8/30/2015 9:40:04 AM
162-I-90 @ Abbey Rd. (562001) Status Air Temp Sfc Temp Sub Temp Dew Temp Wind Precip Traffic Updated
Sensor [A]: Atmospheric - - - - - / Unknown - - -
Sensor [0]: I-90 EB N3 Lane Wet - 74.7 82.2 - - - - 8/21/2011 12:10:14 AM
Sensor [2]: I-90 WB N3 Lane Bridge Wet - 71.8 - - - - - 8/21/2011 12:10:14 AM
163-I-90 @ E. 140th (562002) Status Air Temp Sfc Temp Sub Temp Dew Temp Wind Precip Traffic Updated
Sensor [A]: Atmospheric - 70.2 - - 70.2 1.2 / SE - - 8/30/2015 9:40:24 AM
Sensor [0]: I-90 WB N3 Lane Trace Moisture - 73.4 - - - - - 8/30/2015 9:40:24 AM
Sensor [1]: I-90 WB N3 Lane Bridge Wet - 72.1 - - - - - 8/30/2015 9:40:24 AM
164-I-271 @ I-90 (562003) Status Air Temp Sfc Temp Sub Temp Dew Temp Wind Precip Traffic Updated
Sensor [A]: Atmospheric - 73.6 - - 73.4 5.6 / S - - 8/30/2015 9:40:27 AM
Sensor [0]: I-271 NB TG I-90 EB Trace Moisture - 72.1 - - - - - 8/30/2015 9:40:27 AM
Sensor [1]: I-90 EB N2 Lane Bridge Trace Moisture - 71.6 - - - - - 8/30/2015 9:40:27 AM
Sensor [2]: I-271 NB TG I-90 WB Bridge Wet - 72.0 - - - - - 8/30/2015 9:40:27 AM
Sensor [3]: I-271 NB TG I-90 WB Wet - 72.3 69.8 - - - - 8/30/2015 9:40:27 AM
165-I-480 @ SR-10 (562004) Status Air Temp Sfc Temp Sub Temp Dew Temp Wind Precip Traffic Updated
Sensor [A]: Atmospheric - 69.1 - - 69.1 0.6 / S - - 8/30/2015 9:40:28 AM
Sensor [0]: I-480 EB N2 Lane Bridge Wet - 70.7 - - - - - 8/30/2015 9:40:28 AM
Sensor [1]: I-480 WB N2 Lane Bridge Dry - 69.8 - - - - - 8/30/2015 9:40:28 AM
Sensor [2]: I-480 EB N1 Lane Departure Dry - 71.6 - - - - - 8/30/2015 9:40:28 AM
166-I-71 @ Snow Rd. (562005) Status Air Temp Sfc Temp Sub Temp Dew Temp Wind Precip Traffic Updated
Sensor [A]: Atmospheric - 69.4 - - 69.4 1.2 / SE - - 8/30/2015 9:40:30 AM
Sensor [0]: I-71 NB N3 Lane Bridge Wet - 70.5 - - - - - 8/30/2015 9:40:30 AM
Sensor [1]: I-71 SB N3 Lane Bridge Wet - 70.5 - - - - - 8/30/2015 9:40:30 AM
Sensor [2]: I-71 NB N1 Lane Departure Dry - 71.6 - - - - - 8/30/2015 9:40:30 AM
167-I-77 @ I-480 (562006) Status Air Temp Sfc Temp Sub Temp Dew Temp Wind Precip Traffic Updated
Sensor [A]: Atmospheric - 70.2 - - 70.0 - - - 8/30/2015 9:40:32 AM
Sensor [0]: I-77 NB N2L Br @ SR-17 Error - - - - - - - 8/30/2015 9:40:32 AM
Sensor [1]: I-77 SB N2L Br @ SR-17 Error - - - - - - - 8/30/2015 9:40:32 AM
Sensor [3]: I-77 NB RL Br over I-480 Dry - 73.4 - - - - - 8/30/2015 9:40:32 AM
168-I-480 N @ Miles Rd. (562007) Status Air Temp Sfc Temp Sub Temp Dew Temp Wind Precip Traffic Updated
Sensor [A]: Atmospheric - 68.9 - - 68.4 1.2 / N - - 8/30/2015 9:40:03 AM
Sensor [0]: I-480 N WB N2 Lane Dry - 73.4 - - - - - 8/30/2015 9:40:03 AM
Sensor [1]: I-480 N WB N2 Lane Br Dry - 73.0 - - - - - 8/30/2015 9:40:03 AM
Sensor [2]: I-480 EB N2 Lane Br Dry - 73.4 - - - - - 8/30/2015 9:40:03 AM
169-I-271 @ US-322 (562008) Status Air Temp Sfc Temp Sub Temp Dew Temp Wind Precip Traffic Updated
Sensor [A]: Atmospheric - 69.3 - - 69.3 5.6 / SW - - 8/30/2015 9:40:05 AM
Sensor [0]: I-271 SB N2 Lane Br Dry - 71.6 - - - - - 8/30/2015 9:40:05 AM
Sensor [1]: I-271 SB N2 Lane Dry - 71.6 - - - - - 8/30/2015 9:40:05 AM
Sensor [2]: I-271 NB N2 Lane Br Dry - 71.6 - - - - - 8/30/2015 9:40:05 AM
Sensor [3]: I-271 NB N2 Lane Trace Moisture - 72.1 - - - - - 8/30/2015 9:40:05 AM
170-I-71 @ Drake Rd. (562009) Status Air Temp Sfc Temp Sub Temp Dew Temp Wind Precip Traffic Updated
Sensor [A]: Atmospheric - 70.0 - - 69.1 - - - 8/30/2015 9:40:06 AM
Sensor [0]: I-71 NB N2 Lane Dry - 73.9 75.9 - - - - 8/30/2015 9:40:06 AM
Sensor [1]: I-71 NB N2 Lane Br Dry - 73.0 - - - - - 8/30/2015 9:40:06 AM
Sensor [2]: I-71 SB N2 Lane Br Dry - 74.3 - - - - - 8/30/2015 9:40:06 AM
171-I-77 @ SR-82 (562010) Status Air Temp Sfc Temp Sub Temp Dew Temp Wind Precip Traffic Updated
Sensor [A]: Atmospheric - 69.6 - - 69.1 0.6 / SE - - 8/30/2015 9:40:08 AM
Sensor [0]: I-77 NB N2 Lane Br Dry - 76.1 - - - - - 8/30/2015 9:40:08 AM
Sensor [1]: I-77 SB N2 Lane Br Dry - 75.2 - - - - - 8/30/2015 9:40:08 AM
Sensor [2]: I-77 NB N2 Lane Dry - 75.2 - - - - - 8/30/2015 9:40:08 AM
172-US-422 @ Chagrin Blvd. (562011) Status Air Temp Sfc Temp Sub Temp Dew Temp Wind Precip Traffic Updated
Sensor [A]: Atmospheric - 70.2 - - 67.6 - - - 8/30/2015 9:40:10 AM
Sensor [0]: US-422 WB N2 Lane Error - - - - - - - 8/30/2015 9:40:10 AM
Sensor [1]: US-422 WB N2 Lane Br Dry - 75.2 - - - - - 8/30/2015 9:40:10 AM
Sensor [2]: US-422 EB N2 Lane Br Dry - 77.4 - - - - - 8/30/2015 9:40:10 AM
173-US-422 @ SR-44 (562012) Status Air Temp Sfc Temp Sub Temp Dew Temp Wind Precip Traffic Updated
Sensor [A]: Atmospheric - 69.3 - - 69.8 - - - 8/30/2015 9:40:13 AM
Sensor [0]: US-422 EB N2 Lane Bridge Dry - 75.2 - - - - - 8/30/2015 9:40:13 AM
174- SR-528 @SR-87 (562013) Status Air Temp Sfc Temp Sub Temp Dew Temp Wind Precip Traffic Updated
Sensor [A]: Atmospheric - 68.0 - - 66.6 3.1 / S - - 8/30/2015 9:40:02 AM
Sensor [0]: SR528 NB Dry - 73.4 - - - - - 8/30/2015 9:40:02 AM
Sensor [1]: SR87 WB Dry - 75.2 - - - - - 8/30/2015 9:40:02 AM
175-SR-44 @ Mentor Rd. (562014) Status Air Temp Sfc Temp Sub Temp Dew Temp Wind Precip Traffic Updated
Sensor [A]: Atmospheric - 68.4 - - 68.4 3.1 / SW - - 8/30/2015 9:40:04 AM
Sensor [0]: SR44 NB Wet - 73.4 75.2 - - - - 8/30/2015 9:40:04 AM
176-SR-528 @ SR-166 (562015) Status Air Temp Sfc Temp Sub Temp Dew Temp Wind Precip Traffic Updated
Sensor [A]: Atmospheric - 69.6 - - 68.9 3.7 / N - - 8/30/2015 9:40:06 AM
Sensor [0]: SR-528 SB N of SR-166 Dry - 73.4 - - - - - 8/30/2015 9:40:06 AM
Sensor [1]: SR-166 WB W of SR-528 Dry - 76.1 - - - - - 8/30/2015 9:40:06 AM
177-I-90 @ Hermitage Rd. (562016) Status Air Temp Sfc Temp Sub Temp Dew Temp Wind Precip Traffic Updated
Sensor [A]: Atmospheric - 70.0 - - 70.0 0.6 / S - - 8/30/2015 9:40:08 AM
Sensor [0]: I-90 WB N2 Lane Br Dry - 73.4 - - - - - 8/30/2015 9:40:08 AM
Sensor [1]: I-90 EB N2 Lane Br Dry - 75.2 - - - - - 8/30/2015 9:40:08 AM
Sensor [2]: I90 EB Driving Lane Dry - 73.4 - - - - - 8/30/2015 9:40:08 AM
178-I-90 @ Paine Rd. (562017) Status Air Temp Sfc Temp Sub Temp Dew Temp Wind Precip Traffic Updated
Sensor [A]: Atmospheric - 70.0 - - 70.0 3.1 / SW - - 8/30/2015 9:40:09 AM
Sensor [0]: I-90 WB N2 Lane Br Dry - 73.4 - - - - - 8/30/2015 9:40:09 AM
Sensor [1]: I-90 EB N2 Lane Br Dry - 77.0 - - - - - 8/30/2015 9:40:09 AM
Sensor [2]: I90 EB Driving Lane Dry - 77.0 73.4 - - - - 8/30/2015 9:40:09 AM
179-US-20 @ Parmly Rd. (562018) Status Air Temp Sfc Temp Sub Temp Dew Temp Wind Precip Traffic Updated
Sensor [A]: Atmospheric - 71.1 - - 70.9 - - - 8/30/2015 9:40:10 AM
Sensor [0]: US-20 WB N2 Lane Wet - 77.9 - - - - - 8/30/2015 9:40:10 AM
180-I270 @ US33 (38015) Status Air Temp Sfc Temp Sub Temp Dew Temp Wind Precip Traffic Updated
Sensor [A]: Atmospheric - 64.4 - - 64.2 4.3 / E - - 8/27/2015 9:00:07 AM
181-US 32 @ CR 16 Union Hill Rd (MM 24.8) (200180) Status Air Temp Sfc Temp Sub Temp Dew Temp Wind Precip Traffic Updated
Sensor [A]: Atmospheric - 72.3 - - 68.0 5.6 / W - - 8/30/2015 9:41:35 AM
Sensor [0]: US32 EB Driving Dry - 84.2 - - - - 1 / 9.9 8/30/2015 9:41:35 AM
Sensor [1]: US32 WB Driving Dry - 82.4 - - - - 4 / 9.9 8/30/2015 9:41:35 AM
182-I71 @ SR665 Grove City Outpost (200181) Status Air Temp Sfc Temp Sub Temp Dew Temp Wind Precip Traffic Updated
Sensor [A]: Atmospheric - 71.2 - - 68.4 2.5 / N - - 8/30/2015 9:42:12 AM
Sensor [0]: IR71 NB Passing Dry - 75.2 - - - - 1 / 9.9 8/30/2015 9:42:12 AM
183-US30 @ SR68 (200182) Status Air Temp Sfc Temp Sub Temp Dew Temp Wind Precip Traffic Updated
Sensor [A]: Atmospheric - 69.8 - - 67.5 6.8 / S - - 8/30/2015 9:42:37 AM
Sensor [0]: US30 EB Driving Dry - 75.2 - - - - - 8/30/2015 9:42:37 AM
Sensor [1]: US30 WB Driving Bridgedeck Dry - 73.4 - - - - - 8/30/2015 9:42:37 AM
184-IR 71 @ Stewart Rd (MM 10) (80000) Status Air Temp Sfc Temp Sub Temp Dew Temp Wind Precip Traffic Updated
Sensor [A]: Atmospheric - 71.6 - - 67.3 2.5 / S - - 8/30/2015 9:40:16 AM
Sensor [0]: I71 NB Driving Dry - 78.8 - - - - - 8/30/2015 9:40:16 AM
Sensor [1]: I71 NB Passing Dry - 78.8 - - - - - 8/30/2015 9:40:16 AM
185 - SR235 @ SR67 (80001) Status Air Temp Sfc Temp Sub Temp Dew Temp Wind Precip Traffic Updated
Sensor [A]: Atmospheric - 70.5 - - - 2.5 / W - - 8/30/2015 9:40:18 AM
Sensor [0]: SR-67 EB Dry - 80.6 - - - - - 8/30/2015 9:40:18 AM
186-SR49 @ SR81 (200185) Status Air Temp Sfc Temp Sub Temp Dew Temp Wind Precip Traffic Updated
Sensor [A]: Atmospheric - 74.1 - - 70.2 3.7 / W - - 8/30/2015 9:42:43 AM
Sensor [0]: SR-81 EB Approach Dry - 89.6 - - - - - 8/30/2015 9:42:43 AM
Sensor [1]: SR-81 EB Bridgedeck Dry - 78.8 - - - - - 8/30/2015 9:42:43 AM
187-SR15 @ SR613 (200186) Status Air Temp Sfc Temp Sub Temp Dew Temp Wind Precip Traffic Updated
Sensor [A]: Atmospheric - 73.2 - - 70.5 8.1 / SW - - 8/30/2015 9:36:50 AM
Sensor [0]: SR15 NB Lane Dry - 81.7 - - - - - 8/30/2015 9:36:50 AM
188-SR2 @ INDIANA LINE (200187) Status Air Temp Sfc Temp Sub Temp Dew Temp Wind Precip Traffic Updated
Sensor [A]: Atmospheric - 71.8 - - 70.0 5.6 / S - - 8/30/2015 9:39:02 AM
Sensor [0]: SR2 EB Lane Dry - 78.1 - - - - - 8/30/2015 9:39:02 AM